sensor_id;sensor_type;location;lat;lon;timestamp;P1;durP1;ratioP1;P2;durP2;ratioP2
37047;SDS011;23227;48.780;9.210;2022-09-30T00:02:48;12.00;;;4.50;;
37047;SDS011;23227;48.780;9.210;2022-09-30T00:05:58;9.30;;;4.20;;
37047;SDS011;23227;48.780;9.210;2022-09-30T00:09:08;7.30;;;4.13;;
37047;SDS011;23227;48.780;9.210;2022-09-30T00:12:13;13.10;;;4.63;;
37047;SDS011;23227;48.780;9.210;2022-09-30T00:15:16;11.03;;;4.13;;
37047;SDS011;23227;48.780;9.210;2022-09-30T00:18:18;10.15;;;4.25;;
37047;SDS011;23227;48.780;9.210;2022-09-30T00:21:23;9.98;;;4.18;;
37047;SDS011;23227;48.780;9.210;2022-09-30T00:24:26;9.97;;;4.30;;
37047;SDS011;23227;48.780;9.210;2022-09-30T00:27:28;9.60;;;4.77;;
37047;SDS011;23227;48.780;9.210;2022-09-30T00:30:31;7.93;;;3.93;;
37047;SDS011;23227;48.780;9.210;2022-09-30T00:33:34;8.48;;;4.50;;
37047;SDS011;23227;48.780;9.210;2022-09-30T00:36:42;8.07;;;3.95;;
37047;SDS011;23227;48.780;9.210;2022-09-30T00:39:46;7.63;;;4.17;;
37047;SDS011;23227;48.780;9.210;2022-09-30T00:42:49;16.70;;;4.75;;
37047;SDS011;23227;48.780;9.210;2022-09-30T00:45:52;7.23;;;4.10;;
37047;SDS011;23227;48.780;9.210;2022-09-30T00:48:57;9.50;;;4.40;;
37047;SDS011;23227;48.780;9.210;2022-09-30T00:55:06;10.48;;;3.83;;
37047;SDS011;23227;48.780;9.210;2022-09-30T00:58:12;5.60;;;3.90;;
37047;SDS011;23227;48.780;9.210;2022-09-30T01:01:18;8.93;;;4.40;;
37047;SDS011;23227;48.780;9.210;2022-09-30T01:04:22;9.90;;;4.05;;
37047;SDS011;23227;48.780;9.210;2022-09-30T01:07:27;6.77;;;4.03;;
37047;SDS011;23227;48.780;9.210;2022-09-30T01:10:30;10.23;;;4.23;;
37047;SDS011;23227;48.780;9.210;2022-09-30T01:13:33;8.15;;;4.55;;
37047;SDS011;23227;48.780;9.210;2022-09-30T01:16:45;6.60;;;4.47;;
37047;SDS011;23227;48.780;9.210;2022-09-30T01:20:05;7.93;;;4.37;;
37047;SDS011;23227;48.780;9.210;2022-09-30T01:23:35;15.27;;;4.27;;
37047;SDS011;23227;48.780;9.210;2022-09-30T01:26:52;10.53;;;4.40;;
37047;SDS011;23227;48.780;9.210;2022-09-30T01:30:08;7.83;;;3.93;;
37047;SDS011;23227;48.780;9.210;2022-09-30T01:33:20;8.93;;;3.65;;
37047;SDS011;23227;48.780;9.210;2022-09-30T01:36:29;14.25;;;5.25;;
37047;SDS011;23227;48.780;9.210;2022-09-30T01:39:41;9.40;;;4.60;;
37047;SDS011;23227;48.780;9.210;2022-09-30T01:42:53;7.75;;;4.07;;
37047;SDS011;23227;48.780;9.210;2022-09-30T01:45:59;7.67;;;4.50;;
37047;SDS011;23227;48.780;9.210;2022-09-30T01:49:08;7.30;;;3.97;;
37047;SDS011;23227;48.780;9.210;2022-09-30T01:52:14;9.20;;;4.33;;
37047;SDS011;23227;48.780;9.210;2022-09-30T01:55:19;11.67;;;5.27;;
37047;SDS011;23227;48.780;9.210;2022-09-30T01:58:25;7.13;;;4.30;;
37047;SDS011;23227;48.780;9.210;2022-09-30T02:01:34;6.03;;;4.17;;
37047;SDS011;23227;48.780;9.210;2022-09-30T02:04:42;7.20;;;4.53;;
37047;SDS011;23227;48.780;9.210;2022-09-30T02:07:50;13.40;;;4.33;;
37047;SDS011;23227;48.780;9.210;2022-09-30T02:10:57;8.90;;;4.57;;
37047;SDS011;23227;48.780;9.210;2022-09-30T02:14:01;10.30;;;4.43;;
37047;SDS011;23227;48.780;9.210;2022-09-30T02:17:07;8.67;;;4.73;;
37047;SDS011;23227;48.780;9.210;2022-09-30T02:20:14;10.17;;;4.40;;
37047;SDS011;23227;48.780;9.210;2022-09-30T02:23:19;9.37;;;4.63;;
37047;SDS011;23227;48.780;9.210;2022-09-30T02:26:27;7.97;;;4.70;;
37047;SDS011;23227;48.780;9.210;2022-09-30T02:29:31;8.00;;;5.20;;
37047;SDS011;23227;48.780;9.210;2022-09-30T02:32:38;8.20;;;4.33;;
37047;SDS011;23227;48.780;9.210;2022-09-30T02:35:45;15.60;;;5.33;;
37047;SDS011;23227;48.780;9.210;2022-09-30T02:38:54;11.80;;;4.73;;
37047;SDS011;23227;48.780;9.210;2022-09-30T02:42:09;10.03;;;4.73;;
37047;SDS011;23227;48.780;9.210;2022-09-30T02:45:14;12.83;;;4.87;;
37047;SDS011;23227;48.780;9.210;2022-09-30T02:48:22;7.47;;;4.60;;
37047;SDS011;23227;48.780;9.210;2022-09-30T02:51:32;10.73;;;5.80;;
37047;SDS011;23227;48.780;9.210;2022-09-30T02:54:41;8.40;;;5.20;;
37047;SDS011;23227;48.780;9.210;2022-09-30T02:57:52;8.07;;;5.37;;
37047;SDS011;23227;48.780;9.210;2022-09-30T03:00:58;8.90;;;5.00;;
37047;SDS011;23227;48.780;9.210;2022-09-30T03:04:02;16.85;;;5.50;;
37047;SDS011;23227;48.780;9.210;2022-09-30T03:07:07;12.93;;;6.43;;
37047;SDS011;23227;48.780;9.210;2022-09-30T03:10:11;11.03;;;5.30;;
37047;SDS011;23227;48.780;9.210;2022-09-30T03:13:19;11.13;;;5.40;;
37047;SDS011;23227;48.780;9.210;2022-09-30T03:16:32;9.77;;;5.43;;
37047;SDS011;23227;48.780;9.210;2022-09-30T03:19:51;11.83;;;6.17;;
37047;SDS011;23227;48.780;9.210;2022-09-30T03:23:12;10.77;;;6.03;;
37047;SDS011;23227;48.780;9.210;2022-09-30T03:26:24;9.87;;;5.53;;
37047;SDS011;23227;48.780;9.210;2022-09-30T03:29:35;21.30;;;8.13;;
37047;SDS011;23227;48.780;9.210;2022-09-30T03:32:48;14.83;;;5.73;;
37047;SDS011;23227;48.780;9.210;2022-09-30T03:35:58;10.53;;;5.30;;
37047;SDS011;23227;48.780;9.210;2022-09-30T03:39:05;12.60;;;6.50;;
37047;SDS011;23227;48.780;9.210;2022-09-30T03:42:15;13.47;;;5.60;;
37047;SDS011;23227;48.780;9.210;2022-09-30T03:45:25;18.93;;;6.13;;
37047;SDS011;23227;48.780;9.210;2022-09-30T03:48:31;13.40;;;5.63;;
37047;SDS011;23227;48.780;9.210;2022-09-30T03:51:35;11.65;;;6.05;;
37047;SDS011;23227;48.780;9.210;2022-09-30T03:54:44;13.30;;;6.13;;
37047;SDS011;23227;48.780;9.210;2022-09-30T03:57:48;17.63;;;6.10;;
37047;SDS011;23227;48.780;9.210;2022-09-30T04:00:52;12.88;;;6.13;;
37047;SDS011;23227;48.780;9.210;2022-09-30T04:03:57;14.40;;;7.30;;
37047;SDS011;23227;48.780;9.210;2022-09-30T04:06:59;14.73;;;5.93;;
37047;SDS011;23227;48.780;9.210;2022-09-30T04:10:04;20.73;;;6.93;;
37047;SDS011;23227;48.780;9.210;2022-09-30T04:13:07;14.23;;;8.00;;
37047;SDS011;23227;48.780;9.210;2022-09-30T04:16:11;10.70;;;5.87;;
37047;SDS011;23227;48.780;9.210;2022-09-30T04:19:14;8.90;;;6.10;;
37047;SDS011;23227;48.780;9.210;2022-09-30T04:22:16;19.37;;;6.70;;
37047;SDS011;23227;48.780;9.210;2022-09-30T04:25:26;11.90;;;5.77;;
37047;SDS011;23227;48.780;9.210;2022-09-30T04:28:29;10.33;;;6.03;;
37047;SDS011;23227;48.780;9.210;2022-09-30T04:31:31;13.20;;;5.93;;
37047;SDS011;23227;48.780;9.210;2022-09-30T04:34:34;16.90;;;5.87;;
37047;SDS011;23227;48.780;9.210;2022-09-30T04:37:39;13.57;;;5.80;;
37047;SDS011;23227;48.780;9.210;2022-09-30T04:40:44;11.13;;;5.37;;
37047;SDS011;23227;48.780;9.210;2022-09-30T04:43:49;14.87;;;5.90;;
37047;SDS011;23227;48.780;9.210;2022-09-30T04:46:52;12.40;;;5.57;;
37047;SDS011;23227;48.780;9.210;2022-09-30T04:49:55;8.03;;;5.57;;
37047;SDS011;23227;48.780;9.210;2022-09-30T04:52:57;12.00;;;6.13;;
37047;SDS011;23227;48.780;9.210;2022-09-30T04:56:05;11.60;;;6.27;;
37047;SDS011;23227;48.780;9.210;2022-09-30T04:59:08;12.83;;;5.70;;
37047;SDS011;23227;48.780;9.210;2022-09-30T05:02:10;11.33;;;6.30;;
37047;SDS011;23227;48.780;9.210;2022-09-30T05:05:14;11.15;;;6.95;;
37047;SDS011;23227;48.780;9.210;2022-09-30T05:08:16;16.10;;;6.75;;
37047;SDS011;23227;48.780;9.210;2022-09-30T05:11:21;16.10;;;7.57;;
37047;SDS011;23227;48.780;9.210;2022-09-30T05:14:24;14.83;;;7.27;;
37047;SDS011;23227;48.780;9.210;2022-09-30T05:17:28;13.23;;;7.23;;
37047;SDS011;23227;48.780;9.210;2022-09-30T05:20:31;15.87;;;7.30;;
37047;SDS011;23227;48.780;9.210;2022-09-30T05:23:34;15.80;;;6.13;;
37047;SDS011;23227;48.780;9.210;2022-09-30T05:26:38;14.38;;;7.13;;
37047;SDS011;23227;48.780;9.210;2022-09-30T05:29:41;14.13;;;7.30;;
37047;SDS011;23227;48.780;9.210;2022-09-30T05:32:43;17.20;;;7.33;;
37047;SDS011;23227;48.780;9.210;2022-09-30T05:35:47;13.25;;;8.18;;
37047;SDS011;23227;48.780;9.210;2022-09-30T05:38:49;18.40;;;8.80;;
37047;SDS011;23227;48.780;9.210;2022-09-30T05:41:56;14.07;;;7.35;;
37047;SDS011;23227;48.780;9.210;2022-09-30T05:44:58;14.90;;;8.00;;
37047;SDS011;23227;48.780;9.210;2022-09-30T05:48:01;17.05;;;8.85;;
37047;SDS011;23227;48.780;9.210;2022-09-30T05:51:04;17.55;;;8.55;;
37047;SDS011;23227;48.780;9.210;2022-09-30T05:54:08;19.10;;;10.18;;
37047;SDS011;23227;48.780;9.210;2022-09-30T05:57:12;18.40;;;8.55;;
37047;SDS011;23227;48.780;9.210;2022-09-30T06:00:15;19.23;;;8.53;;
37047;SDS011;23227;48.780;9.210;2022-09-30T06:03:18;19.55;;;8.35;;
37047;SDS011;23227;48.780;9.210;2022-09-30T06:06:21;21.40;;;8.43;;
37047;SDS011;23227;48.780;9.210;2022-09-30T06:09:24;18.60;;;8.57;;
37047;SDS011;23227;48.780;9.210;2022-09-30T06:12:28;16.13;;;8.57;;
37047;SDS011;23227;48.780;9.210;2022-09-30T06:15:30;14.07;;;8.40;;
37047;SDS011;23227;48.780;9.210;2022-09-30T06:18:33;14.70;;;8.53;;
37047;SDS011;23227;48.780;9.210;2022-09-30T06:21:36;15.18;;;8.02;;
37047;SDS011;23227;48.780;9.210;2022-09-30T06:27:44;14.80;;;8.30;;
37047;SDS011;23227;48.780;9.210;2022-09-30T06:30:47;17.80;;;7.90;;
37047;SDS011;23227;48.780;9.210;2022-09-30T06:33:51;18.38;;;8.48;;
37047;SDS011;23227;48.780;9.210;2022-09-30T06:36:54;17.05;;;8.98;;
37047;SDS011;23227;48.780;9.210;2022-09-30T06:39:56;13.67;;;7.70;;
37047;SDS011;23227;48.780;9.210;2022-09-30T06:43:01;24.13;;;8.93;;
37047;SDS011;23227;48.780;9.210;2022-09-30T06:46:03;18.97;;;9.83;;
37047;SDS011;23227;48.780;9.210;2022-09-30T06:49:19;14.80;;;8.33;;
37047;SDS011;23227;48.780;9.210;2022-09-30T06:52:22;15.63;;;9.45;;
37047;SDS011;23227;48.780;9.210;2022-09-30T06:55:25;19.05;;;9.80;;
37047;SDS011;23227;48.780;9.210;2022-09-30T06:58:29;17.38;;;9.32;;
37047;SDS011;23227;48.780;9.210;2022-09-30T07:01:32;13.53;;;9.23;;
37047;SDS011;23227;48.780;9.210;2022-09-30T07:04:35;17.65;;;9.20;;
37047;SDS011;23227;48.780;9.210;2022-09-30T07:07:37;13.93;;;9.17;;
37047;SDS011;23227;48.780;9.210;2022-09-30T07:10:40;17.40;;;8.82;;
37047;SDS011;23227;48.780;9.210;2022-09-30T07:13:45;13.73;;;8.53;;
37047;SDS011;23227;48.780;9.210;2022-09-30T07:16:49;15.30;;;8.47;;
37047;SDS011;23227;48.780;9.210;2022-09-30T07:22:55;16.33;;;9.73;;
37047;SDS011;23227;48.780;9.210;2022-09-30T07:25:59;15.35;;;9.07;;
37047;SDS011;23227;48.780;9.210;2022-09-30T07:29:06;15.87;;;8.73;;
37047;SDS011;23227;48.780;9.210;2022-09-30T07:32:08;17.87;;;10.00;;
37047;SDS011;23227;48.780;9.210;2022-09-30T07:35:11;15.52;;;9.90;;
37047;SDS011;23227;48.780;9.210;2022-09-30T07:38:14;21.13;;;10.10;;
37047;SDS011;23227;48.780;9.210;2022-09-30T07:41:18;21.83;;;9.55;;
37047;SDS011;23227;48.780;9.210;2022-09-30T07:44:27;20.93;;;9.63;;
37047;SDS011;23227;48.780;9.210;2022-09-30T07:47:29;13.60;;;8.30;;
37047;SDS011;23227;48.780;9.210;2022-09-30T07:50:32;12.37;;;8.13;;
37047;SDS011;23227;48.780;9.210;2022-09-30T07:53:35;12.40;;;8.30;;
37047;SDS011;23227;48.780;9.210;2022-09-30T07:56:38;14.73;;;8.60;;
37047;SDS011;23227;48.780;9.210;2022-09-30T08:03:27;13.40;;;8.47;;
37047;SDS011;23227;48.780;9.210;2022-09-30T08:06:30;14.77;;;8.50;;
37047;SDS011;23227;48.780;9.210;2022-09-30T08:09:34;15.17;;;9.27;;
37047;SDS011;23227;48.780;9.210;2022-09-30T08:12:37;13.98;;;8.05;;
37047;SDS011;23227;48.780;9.210;2022-09-30T08:15:41;14.60;;;7.80;;
37047;SDS011;23227;48.780;9.210;2022-09-30T08:18:44;13.17;;;8.90;;
37047;SDS011;23227;48.780;9.210;2022-09-30T08:21:47;13.15;;;8.02;;
37047;SDS011;23227;48.780;9.210;2022-09-30T08:24:50;13.57;;;7.75;;
37047;SDS011;23227;48.780;9.210;2022-09-30T08:27:53;12.20;;;7.80;;
37047;SDS011;23227;48.780;9.210;2022-09-30T08:31:03;14.65;;;8.63;;
37047;SDS011;23227;48.780;9.210;2022-09-30T08:34:06;16.40;;;8.10;;
37047;SDS011;23227;48.780;9.210;2022-09-30T08:37:09;14.15;;;8.35;;
37047;SDS011;23227;48.780;9.210;2022-09-30T08:40:16;14.67;;;8.03;;
37047;SDS011;23227;48.780;9.210;2022-09-30T08:43:23;16.70;;;8.77;;
37047;SDS011;23227;48.780;9.210;2022-09-30T08:46:34;17.20;;;9.17;;
37047;SDS011;23227;48.780;9.210;2022-09-30T08:49:45;19.23;;;11.00;;
37047;SDS011;23227;48.780;9.210;2022-09-30T08:52:52;20.37;;;10.27;;
37047;SDS011;23227;48.780;9.210;2022-09-30T08:55:58;22.70;;;10.23;;
37047;SDS011;23227;48.780;9.210;2022-09-30T08:59:04;20.77;;;10.50;;
37047;SDS011;23227;48.780;9.210;2022-09-30T09:02:12;21.03;;;12.13;;
37047;SDS011;23227;48.780;9.210;2022-09-30T09:05:27;19.97;;;10.57;;
37047;SDS011;23227;48.780;9.210;2022-09-30T09:08:37;20.50;;;11.03;;
37047;SDS011;23227;48.780;9.210;2022-09-30T09:11:58;23.27;;;11.60;;
37047;SDS011;23227;48.780;9.210;2022-09-30T09:15:21;24.27;;;11.93;;
37047;SDS011;23227;48.780;9.210;2022-09-30T09:22:06;22.77;;;11.07;;
37047;SDS011;23227;48.780;9.210;2022-09-30T09:25:11;21.47;;;11.57;;
37047;SDS011;23227;48.780;9.210;2022-09-30T09:28:16;21.47;;;11.47;;
37047;SDS011;23227;48.780;9.210;2022-09-30T09:31:26;20.90;;;10.90;;
37047;SDS011;23227;48.780;9.210;2022-09-30T09:34:30;18.25;;;11.20;;
37047;SDS011;23227;48.780;9.210;2022-09-30T09:37:42;19.03;;;10.77;;
37047;SDS011;23227;48.780;9.210;2022-09-30T09:41:09;18.30;;;9.73;;
37047;SDS011;23227;48.780;9.210;2022-09-30T09:44:18;18.00;;;10.20;;
37047;SDS011;23227;48.780;9.210;2022-09-30T09:47:25;16.33;;;10.00;;
37047;SDS011;23227;48.780;9.210;2022-09-30T09:50:33;19.00;;;9.95;;
37047;SDS011;23227;48.780;9.210;2022-09-30T09:53:41;20.20;;;10.10;;
37047;SDS011;23227;48.780;9.210;2022-09-30T09:56:46;14.90;;;8.73;;
37047;SDS011;23227;48.780;9.210;2022-09-30T09:59:53;11.87;;;7.17;;
37047;SDS011;23227;48.780;9.210;2022-09-30T10:02:59;11.13;;;7.53;;
37047;SDS011;23227;48.780;9.210;2022-09-30T10:06:06;10.37;;;6.47;;
37047;SDS011;23227;48.780;9.210;2022-09-30T10:09:20;10.00;;;6.47;;
37047;SDS011;23227;48.780;9.210;2022-09-30T10:12:27;12.33;;;7.77;;
37047;SDS011;23227;48.780;9.210;2022-09-30T10:15:30;14.13;;;8.20;;
37047;SDS011;23227;48.780;9.210;2022-09-30T10:18:34;12.23;;;6.75;;
37047;SDS011;23227;48.780;9.210;2022-09-30T10:21:39;12.23;;;6.50;;
37047;SDS011;23227;48.780;9.210;2022-09-30T10:24:42;9.33;;;5.50;;
37047;SDS011;23227;48.780;9.210;2022-09-30T10:27:49;11.13;;;6.15;;
37047;SDS011;23227;48.780;9.210;2022-09-30T10:30:56;9.83;;;6.03;;
37047;SDS011;23227;48.780;9.210;2022-09-30T10:34:00;11.57;;;6.73;;
37047;SDS011;23227;48.780;9.210;2022-09-30T10:37:08;13.30;;;6.23;;
37047;SDS011;23227;48.780;9.210;2022-09-30T10:40:14;7.47;;;5.03;;
37047;SDS011;23227;48.780;9.210;2022-09-30T10:43:19;12.10;;;5.53;;
37047;SDS011;23227;48.780;9.210;2022-09-30T10:46:24;8.23;;;5.00;;
37047;SDS011;23227;48.780;9.210;2022-09-30T10:49:29;6.87;;;4.67;;
37047;SDS011;23227;48.780;9.210;2022-09-30T10:52:35;6.60;;;3.17;;
37047;SDS011;23227;48.780;9.210;2022-09-30T10:55:40;7.93;;;3.80;;
37047;SDS011;23227;48.780;9.210;2022-09-30T10:58:44;5.07;;;2.63;;
37047;SDS011;23227;48.780;9.210;2022-09-30T11:01:50;5.10;;;2.80;;
37047;SDS011;23227;48.780;9.210;2022-09-30T11:05:02;5.30;;;2.40;;
37047;SDS011;23227;48.780;9.210;2022-09-30T11:08:12;3.93;;;2.10;;
37047;SDS011;23227;48.780;9.210;2022-09-30T11:11:20;8.87;;;3.33;;
37047;SDS011;23227;48.780;9.210;2022-09-30T11:14:26;14.10;;;8.63;;
37047;SDS011;23227;48.780;9.210;2022-09-30T11:17:33;9.13;;;3.53;;
37047;SDS011;23227;48.780;9.210;2022-09-30T11:20:40;6.90;;;3.27;;
37047;SDS011;23227;48.780;9.210;2022-09-30T11:23:49;7.00;;;3.17;;
37047;SDS011;23227;48.780;9.210;2022-09-30T11:26:56;5.40;;;2.97;;
37047;SDS011;23227;48.780;9.210;2022-09-30T11:30:07;6.27;;;3.10;;
37047;SDS011;23227;48.780;9.210;2022-09-30T11:33:18;5.90;;;3.30;;
37047;SDS011;23227;48.780;9.210;2022-09-30T11:36:30;13.70;;;2.90;;
37047;SDS011;23227;48.780;9.210;2022-09-30T11:39:52;3.77;;;2.33;;
37047;SDS011;23227;48.780;9.210;2022-09-30T11:43:07;3.27;;;2.50;;
37047;SDS011;23227;48.780;9.210;2022-09-30T11:46:30;3.83;;;2.50;;
37047;SDS011;23227;48.780;9.210;2022-09-30T11:53:21;4.47;;;2.60;;
37047;SDS011;23227;48.780;9.210;2022-09-30T11:56:33;5.77;;;2.33;;
37047;SDS011;23227;48.780;9.210;2022-09-30T11:59:41;7.23;;;2.20;;
37047;SDS011;23227;48.780;9.210;2022-09-30T12:02:47;4.93;;;2.13;;
37047;SDS011;23227;48.780;9.210;2022-09-30T12:05:52;3.30;;;2.33;;
37047;SDS011;23227;48.780;9.210;2022-09-30T12:08:58;7.07;;;2.20;;
37047;SDS011;23227;48.780;9.210;2022-09-30T12:12:06;6.00;;;2.10;;
37047;SDS011;23227;48.780;9.210;2022-09-30T12:15:17;4.30;;;1.73;;
37047;SDS011;23227;48.780;9.210;2022-09-30T12:18:21;5.20;;;2.57;;
37047;SDS011;23227;48.780;9.210;2022-09-30T12:21:27;3.37;;;2.03;;
37047;SDS011;23227;48.780;9.210;2022-09-30T12:24:34;5.47;;;2.20;;
37047;SDS011;23227;48.780;9.210;2022-09-30T12:27:41;3.60;;;1.90;;
37047;SDS011;23227;48.780;9.210;2022-09-30T12:30:47;6.53;;;1.90;;
37047;SDS011;23227;48.780;9.210;2022-09-30T12:33:54;3.70;;;2.17;;
37047;SDS011;23227;48.780;9.210;2022-09-30T12:37:04;4.05;;;1.83;;
37047;SDS011;23227;48.780;9.210;2022-09-30T12:40:35;3.13;;;1.50;;
37047;SDS011;23227;48.780;9.210;2022-09-30T12:47:32;3.47;;;1.10;;
37047;SDS011;23227;48.780;9.210;2022-09-30T12:50:40;2.07;;;1.20;;
37047;SDS011;23227;48.780;9.210;2022-09-30T12:53:43;1.20;;;1.00;;
37047;SDS011;23227;48.780;9.210;2022-09-30T12:56:52;1.93;;;1.00;;
37047;SDS011;23227;48.780;9.210;2022-09-30T12:59:59;2.80;;;1.03;;
37047;SDS011;23227;48.780;9.210;2022-09-30T13:03:05;2.90;;;1.50;;
37047;SDS011;23227;48.780;9.210;2022-09-30T13:06:16;3.92;;;1.33;;
37047;SDS011;23227;48.780;9.210;2022-09-30T13:09:21;4.60;;;1.20;;
37047;SDS011;23227;48.780;9.210;2022-09-30T13:12:41;2.88;;;1.15;;
37047;SDS011;23227;48.780;9.210;2022-09-30T13:15:47;1.55;;;0.80;;
37047;SDS011;23227;48.780;9.210;2022-09-30T13:25:59;0.80;;;0.70;;
37047;SDS011;23227;48.780;9.210;2022-09-30T13:32:31;0.93;;;0.52;;
37047;SDS011;23227;48.780;9.210;2022-09-30T13:35:47;1.17;;;0.75;;
37047;SDS011;23227;48.780;9.210;2022-09-30T13:39:04;1.80;;;0.47;;
37047;SDS011;23227;48.780;9.210;2022-09-30T13:42:11;0.70;;;0.63;;
37047;SDS011;23227;48.780;9.210;2022-09-30T13:45:20;1.40;;;0.70;;
37047;SDS011;23227;48.780;9.210;2022-09-30T13:48:30;1.60;;;1.00;;
37047;SDS011;23227;48.780;9.210;2022-09-30T13:51:35;2.58;;;0.90;;
37047;SDS011;23227;48.780;9.210;2022-09-30T13:54:40;1.77;;;0.60;;
37047;SDS011;23227;48.780;9.210;2022-09-30T13:57:50;2.03;;;0.67;;
37047;SDS011;23227;48.780;9.210;2022-09-30T14:04:11;2.73;;;0.77;;
37047;SDS011;23227;48.780;9.210;2022-09-30T14:07:27;4.07;;;0.87;;
37047;SDS011;23227;48.780;9.210;2022-09-30T14:10:41;4.60;;;1.10;;
37047;SDS011;23227;48.780;9.210;2022-09-30T14:14:01;2.07;;;0.60;;
37047;SDS011;23227;48.780;9.210;2022-09-30T14:17:22;2.97;;;0.87;;
37047;SDS011;23227;48.780;9.210;2022-09-30T14:20:34;2.47;;;0.70;;
37047;SDS011;23227;48.780;9.210;2022-09-30T14:23:41;0.63;;;0.33;;
37047;SDS011;23227;48.780;9.210;2022-09-30T14:30:08;6.23;;;0.60;;
37047;SDS011;23227;48.780;9.210;2022-09-30T14:33:15;2.50;;;1.23;;
37047;SDS011;23227;48.780;9.210;2022-09-30T14:36:26;3.57;;;1.47;;
37047;SDS011;23227;48.780;9.210;2022-09-30T14:39:29;2.53;;;1.27;;
37047;SDS011;23227;48.780;9.210;2022-09-30T14:42:34;2.53;;;0.90;;
37047;SDS011;23227;48.780;9.210;2022-09-30T14:45:40;2.03;;;1.30;;
37047;SDS011;23227;48.780;9.210;2022-09-30T14:48:45;1.93;;;1.23;;
37047;SDS011;23227;48.780;9.210;2022-09-30T14:51:52;2.30;;;1.13;;
37047;SDS011;23227;48.780;9.210;2022-09-30T14:54:55;4.03;;;1.70;;
37047;SDS011;23227;48.780;9.210;2022-09-30T14:58:18;3.10;;;1.40;;
37047;SDS011;23227;48.780;9.210;2022-09-30T15:01:23;3.00;;;1.50;;
37047;SDS011;23227;48.780;9.210;2022-09-30T15:04:27;4.03;;;1.77;;
37047;SDS011;23227;48.780;9.210;2022-09-30T15:07:33;4.45;;;1.42;;
37047;SDS011;23227;48.780;9.210;2022-09-30T15:10:36;2.03;;;1.33;;
37047;SDS011;23227;48.780;9.210;2022-09-30T15:13:39;1.88;;;1.52;;
37047;SDS011;23227;48.780;9.210;2022-09-30T15:16:46;9.48;;;4.07;;
37047;SDS011;23227;48.780;9.210;2022-09-30T15:19:50;4.90;;;1.98;;
37047;SDS011;23227;48.780;9.210;2022-09-30T15:25:56;7.15;;;1.70;;
37047;SDS011;23227;48.780;9.210;2022-09-30T15:29:01;2.47;;;1.27;;
37047;SDS011;23227;48.780;9.210;2022-09-30T15:32:19;2.65;;;1.40;;
37047;SDS011;23227;48.780;9.210;2022-09-30T15:35:23;2.83;;;1.52;;
37047;SDS011;23227;48.780;9.210;2022-09-30T15:38:27;2.55;;;1.42;;
37047;SDS011;23227;48.780;9.210;2022-09-30T15:41:36;3.22;;;1.42;;
37047;SDS011;23227;48.780;9.210;2022-09-30T15:44:40;1.92;;;1.25;;
37047;SDS011;23227;48.780;9.210;2022-09-30T15:47:51;3.33;;;1.67;;
37047;SDS011;23227;48.780;9.210;2022-09-30T15:50:56;1.38;;;1.17;;
37047;SDS011;23227;48.780;9.210;2022-09-30T15:57:36;3.67;;;1.40;;
37047;SDS011;23227;48.780;9.210;2022-09-30T16:00:44;5.20;;;1.52;;
37047;SDS011;23227;48.780;9.210;2022-09-30T16:03:49;1.48;;;1.13;;
37047;SDS011;23227;48.780;9.210;2022-09-30T16:06:54;3.80;;;1.80;;
37047;SDS011;23227;48.780;9.210;2022-09-30T16:09:59;3.17;;;1.38;;
37047;SDS011;23227;48.780;9.210;2022-09-30T16:13:02;3.70;;;1.23;;
37047;SDS011;23227;48.780;9.210;2022-09-30T16:16:09;2.40;;;1.33;;
37047;SDS011;23227;48.780;9.210;2022-09-30T16:19:16;3.47;;;1.27;;
37047;SDS011;23227;48.780;9.210;2022-09-30T16:22:32;2.13;;;1.30;;
37047;SDS011;23227;48.780;9.210;2022-09-30T16:25:38;3.50;;;1.50;;
37047;SDS011;23227;48.780;9.210;2022-09-30T16:28:41;5.20;;;1.27;;
37047;SDS011;23227;48.780;9.210;2022-09-30T16:31:44;1.73;;;1.17;;
37047;SDS011;23227;48.780;9.210;2022-09-30T16:34:48;7.20;;;1.77;;
37047;SDS011;23227;48.780;9.210;2022-09-30T16:37:56;4.83;;;1.80;;
37047;SDS011;23227;48.780;9.210;2022-09-30T16:41:01;5.47;;;2.03;;
37047;SDS011;23227;48.780;9.210;2022-09-30T16:44:04;4.07;;;1.60;;
37047;SDS011;23227;48.780;9.210;2022-09-30T16:47:07;3.60;;;2.03;;
37047;SDS011;23227;48.780;9.210;2022-09-30T16:50:24;6.97;;;2.60;;
37047;SDS011;23227;48.780;9.210;2022-09-30T16:53:31;5.07;;;2.47;;
37047;SDS011;23227;48.780;9.210;2022-09-30T16:56:35;6.32;;;2.78;;
37047;SDS011;23227;48.780;9.210;2022-09-30T16:59:38;7.13;;;3.10;;
37047;SDS011;23227;48.780;9.210;2022-09-30T17:02:40;5.63;;;2.72;;
37047;SDS011;23227;48.780;9.210;2022-09-30T17:05:44;4.50;;;2.20;;
37047;SDS011;23227;48.780;9.210;2022-09-30T17:08:53;7.77;;;3.53;;
37047;SDS011;23227;48.780;9.210;2022-09-30T17:11:58;11.47;;;4.47;;
37047;SDS011;23227;48.780;9.210;2022-09-30T17:15:01;8.03;;;4.60;;
37047;SDS011;23227;48.780;9.210;2022-09-30T17:18:05;7.85;;;4.18;;
37047;SDS011;23227;48.780;9.210;2022-09-30T17:21:09;8.43;;;3.70;;
37047;SDS011;23227;48.780;9.210;2022-09-30T17:24:11;10.13;;;3.60;;
37047;SDS011;23227;48.780;9.210;2022-09-30T17:27:16;7.40;;;3.42;;
37047;SDS011;23227;48.780;9.210;2022-09-30T17:30:19;9.93;;;3.40;;
37047;SDS011;23227;48.780;9.210;2022-09-30T17:33:22;9.57;;;3.10;;
37047;SDS011;23227;48.780;9.210;2022-09-30T17:36:24;7.88;;;3.42;;
37047;SDS011;23227;48.780;9.210;2022-09-30T17:39:27;9.88;;;3.50;;
37047;SDS011;23227;48.780;9.210;2022-09-30T17:42:31;9.33;;;3.70;;
37047;SDS011;23227;48.780;9.210;2022-09-30T17:45:57;8.47;;;3.40;;
37047;SDS011;23227;48.780;9.210;2022-09-30T17:49:00;8.53;;;3.83;;
37047;SDS011;23227;48.780;9.210;2022-09-30T17:52:03;8.85;;;3.97;;
37047;SDS011;23227;48.780;9.210;2022-09-30T17:55:06;10.30;;;5.22;;
37047;SDS011;23227;48.780;9.210;2022-09-30T17:58:11;11.07;;;6.57;;
37047;SDS011;23227;48.780;9.210;2022-09-30T18:01:15;9.97;;;5.43;;
37047;SDS011;23227;48.780;9.210;2022-09-30T18:04:20;9.87;;;3.80;;
37047;SDS011;23227;48.780;9.210;2022-09-30T18:07:23;6.35;;;3.55;;
37047;SDS011;23227;48.780;9.210;2022-09-30T18:10:27;9.30;;;4.07;;
37047;SDS011;23227;48.780;9.210;2022-09-30T18:13:32;7.15;;;3.33;;
37047;SDS011;23227;48.780;9.210;2022-09-30T18:16:35;8.90;;;4.50;;
37047;SDS011;23227;48.780;9.210;2022-09-30T18:19:38;9.90;;;3.47;;
37047;SDS011;23227;48.780;9.210;2022-09-30T18:22:40;6.80;;;3.80;;
37047;SDS011;23227;48.780;9.210;2022-09-30T18:25:43;7.65;;;4.57;;
37047;SDS011;23227;48.780;9.210;2022-09-30T18:28:47;9.17;;;3.60;;
37047;SDS011;23227;48.780;9.210;2022-09-30T18:31:50;6.27;;;3.13;;
37047;SDS011;23227;48.780;9.210;2022-09-30T18:34:53;10.60;;;3.80;;
37047;SDS011;23227;48.780;9.210;2022-09-30T18:37:56;6.20;;;3.63;;
37047;SDS011;23227;48.780;9.210;2022-09-30T18:40:59;7.23;;;3.70;;
37047;SDS011;23227;48.780;9.210;2022-09-30T18:44:03;8.55;;;3.70;;
37047;SDS011;23227;48.780;9.210;2022-09-30T18:47:06;13.27;;;4.37;;
37047;SDS011;23227;48.780;9.210;2022-09-30T18:50:09;11.07;;;4.70;;
37047;SDS011;23227;48.780;9.210;2022-09-30T18:53:12;6.90;;;3.40;;
37047;SDS011;23227;48.780;9.210;2022-09-30T18:56:15;9.15;;;4.22;;
37047;SDS011;23227;48.780;9.210;2022-09-30T18:59:24;8.47;;;3.63;;
37047;SDS011;23227;48.780;9.210;2022-09-30T19:02:27;6.40;;;3.00;;
37047;SDS011;23227;48.780;9.210;2022-09-30T19:05:29;5.78;;;2.90;;
37047;SDS011;23227;48.780;9.210;2022-09-30T19:08:32;8.65;;;3.90;;
37047;SDS011;23227;48.780;9.210;2022-09-30T19:11:35;13.35;;;6.22;;
37047;SDS011;23227;48.780;9.210;2022-09-30T19:14:40;13.53;;;6.37;;
37047;SDS011;23227;48.780;9.210;2022-09-30T19:17:44;12.53;;;6.63;;
37047;SDS011;23227;48.780;9.210;2022-09-30T19:20:53;13.47;;;6.73;;
37047;SDS011;23227;48.780;9.210;2022-09-30T19:23:56;12.27;;;6.17;;